Chatham, MA

12:58 AM EDT on April 28, 2015 (GMT -0400)
Oyster Pond and River | | Change Station
CLOSE
Current Station
Personal Weather Station
Location: Chatham, MA
Elevation: 69 ft
Nearby Weather Stations

Elev 69 ft 41.68 °N, 69.97 °W | Updated 6 seconds ago

Overcast
Overcast
43.0 °F
Feels Like 40 °F
N
5.0
Wind Variable Wind from NE
Gusts 7.0 mph

Today
High -- | Low -- °F
--% Chance of Precip.
Yesterday
High -- | Low -- °F
Precip. -- in
5:41 AM 7:34 PM
Waxing Gibbous, 70% visible
Pressure 29.60 in
Visibility 10.0 miles
Clouds Mostly Cloudy 2500 ft
Overcast 4100 ft
Windchill 40 °F
Dew Point 22 °F
Humidity 42%
Rainfall 0.00 in
Snow Depth Not available.
UV 0 out of 12
Pollen 8.00 out of 12
Air Quality Not available.
Flu Activity Widespread
METAR KCQX 280452Z AUTO 34003KT 10SM BKN025 OVC041 06/04 A2959 RMK AO2 RAB15E24 SLP022 P0000 T00610039 401280044 $

More Conditions Fewer Conditions

Pressure 29.60 in
Visibility 10.0 miles
Clouds Mostly Cloudy 2500 ft
Overcast 4100 ft
Windchill 40 °F
Dew Point 22 °F
Humidity 42%
Rainfall 0.00 in
Snow Depth Not available.
UV 0 out of 12
Pollen 8.00 out of 12
Air Quality Not available.
Flu Activity Widespread
METAR KCQX 280452Z AUTO 34003KT 10SM BKN025 OVC041 06/04 A2959 RMK AO2 RAB15E24 SLP022 P0000 T00610039 401280044 $

More Conditions Fewer Conditions

10-Day Weather Forecast

Almanac

Astronomy

Apr. 28, 2015 Rise Set
Actual Time
Civil Twilight
Nautical Twilight
Astronomical Twilight
Moon
Length of Visible Light
Length of Day
Tomorrow will be .
, % of the Moon is Illuminated

Today's Extremes

State Highs State Lows

Community

WunderPhotos

Upload Photos

1,817,582 photos uploaded!

WunderBlogs® & News

Nearby

Air Quality

  Air Quality AQ Index Pollutant
Not available.

Snow Depth

Station Depth Elevation

Earthquake Activity

City Distance Mag. Time & Date
Minimum magnitude displayed is 2.5.

Coastal Water Temperatures

Place Temperature

Stations

Nearby Weather Stations

Station Location Temp. Windchill Dew Point Humidity Wind Precip. Elev Updated Type